Time;durP1;ratioP1;P1;durP2;ratioP2;P2;SDS_P1;SDS_P2;PMS_P1;PMS_P2;Temp;Humidity;BMP_temperature;BMP_pressure;BME280_temperature;BME280_humidity;BME280_pressure;Samples;Min_cycle;Max_cycle;Signal;HPM_P1;HPM_P2
2022/05/02 00:00:07;;;;;;;5.90;3.90;;;;;;;12.54;55.95;95511.00;5030502;28;20032;-74
2022/05/02 00:02:33;;;;;;;5.22;3.97;;;;;;;12.53;55.96;95511.19;5030479;28;20097;-78
2022/05/02 00:04:59;;;;;;;6.25;4.35;;;;;;;12.54;55.79;95510.19;5030866;28;20399;-76
2022/05/02 00:07:24;;;;;;;6.43;4.22;;;;;;;12.50;56.08;95507.03;5030205;28;20025;-75
2022/05/02 00:09:50;;;;;;;5.38;4.13;;;;;;;12.44;56.20;95500.56;5065039;28;20494;-75
2022/05/02 00:12:15;;;;;;;6.13;3.90;;;;;;;12.52;55.98;95506.84;5046352;28;20484;-76
2022/05/02 00:14:40;;;;;;;6.97;4.30;;;;;;;12.47;56.09;95508.25;5047024;28;20030;-78
2022/05/02 00:17:06;;;;;;;6.78;4.18;;;;;;;12.47;56.16;95494.81;5046731;28;20024;-76
2022/05/02 00:19:31;;;;;;;5.68;4.25;;;;;;;12.49;56.03;95500.81;5030133;28;20024;-78
2022/05/02 00:21:57;;;;;;;5.82;4.20;;;;;;;12.48;56.18;95501.84;5047145;28;20020;-77
2022/05/02 00:24:22;;;;;;;5.40;3.95;;;;;;;12.42;56.41;95502.59;5047175;28;20028;-76
2022/05/02 00:26:48;;;;;;;6.38;4.32;;;;;;;12.44;56.10;95503.25;5065259;28;20036;-76
2022/05/02 00:29:13;;;;;;;6.22;3.95;;;;;;;12.48;56.03;95501.00;5030403;28;20028;-75
2022/05/02 00:31:38;;;;;;;6.22;4.20;;;;;;;12.50;56.06;95496.28;5030133;28;20131;-77
2022/05/02 00:34:04;;;;;;;8.55;4.63;;;;;;;12.53;56.22;95500.44;5046590;28;20044;-76
2022/05/02 00:36:29;;;;;;;5.78;4.20;;;;;;;12.52;56.14;95504.16;5064750;28;20020;-78
2022/05/02 00:38:55;;;;;;;6.03;4.20;;;;;;;12.52;55.92;95504.16;5064588;28;20583;-77
2022/05/02 00:41:22;;;;;;;7.18;4.68;;;;;;;12.50;56.18;95501.66;5013763;28;20012;-76
2022/05/02 00:43:47;;;;;;;5.90;4.60;;;;;;;12.48;56.14;95501.84;5030533;28;20408;-75
2022/05/02 00:46:18;;;;;;;5.57;4.20;;;;;;;12.43;56.37;95493.50;5046506;28;20405;-77
2022/05/02 00:48:43;;;;;;;6.53;4.45;;;;;;;12.41;56.31;95486.66;5046580;28;20096;-75
2022/05/02 00:51:09;;;;;;;9.85;4.22;;;;;;;12.42;56.11;95489.16;5046543;28;20044;-77
2022/05/02 00:53:34;;;;;;;7.43;4.35;;;;;;;12.44;56.11;95489.81;5046485;28;20036;-77
2022/05/02 00:56:00;;;;;;;4.65;4.00;;;;;;;12.42;56.44;95482.94;5064689;28;20028;-78
2022/05/02 00:58:26;;;;;;;5.40;3.60;;;;;;;12.39;56.37;95484.16;5030160;28;20044;-77
2022/05/02 01:00:51;;;;;;;5.05;3.88;;;;;;;12.38;56.37;95484.34;5029979;28;20032;-76
2022/05/02 01:03:16;;;;;;;9.23;4.10;;;;;;;12.41;56.34;95482.13;5064174;28;20021;-75
2022/05/02 01:08:29;;;;;;;5.93;3.90;;;;;;;12.35;56.29;95474.78;5035413;28;20040;-76
2022/05/02 01:10:55;;;;;;;4.65;3.47;;;;;;;12.33;56.71;95479.53;5046023;28;20525;-80
2022/05/02 01:13:33;;;;;;;5.95;3.60;;;;;;;12.33;56.21;95468.75;5046303;28;20025;-77
2022/05/02 01:15:58;;;;;;;4.45;3.22;;;;;;;12.31;56.15;95463.56;5046293;28;20601;-76
2022/05/02 01:18:24;;;;;;;4.15;3.20;;;;;;;12.29;56.22;95468.28;5064497;28;20020;-75
2022/05/02 01:20:49;;;;;;;6.38;3.42;;;;;;;12.34;55.88;95462.34;5064058;28;20495;-76
2022/05/02 01:23:15;;;;;;;4.40;3.08;;;;;;;12.35;55.99;95472.06;5066647;28;20024;-77
2022/05/02 01:25:40;;;;;;;4.93;3.40;;;;;;;12.29;55.83;95462.06;5050153;28;20025;-76
2022/05/02 01:28:07;;;;;;;6.00;3.25;;;;;;;12.23;56.37;95461.81;5067848;28;20017;-75
2022/05/02 01:30:32;;;;;;;4.40;3.17;;;;;;;12.20;56.33;95459.47;5049873;28;20032;-75
2022/05/02 01:32:58;;;;;;;5.55;3.47;;;;;;;12.20;56.14;95450.59;5032780;28;20028;-76
2022/05/02 01:35:23;;;;;;;4.65;3.20;;;;;;;12.06;56.58;95447.69;5017038;28;20029;-75
2022/05/02 01:37:48;;;;;;;5.60;2.92;;;;;;;12.10;56.27;95450.88;5049978;28;20024;-76
2022/05/02 01:40:14;;;;;;;5.40;3.33;;;;;;;12.08;56.55;95448.38;5050075;28;20577;-75
2022/05/02 01:42:39;;;;;;;5.00;3.58;;;;;;;12.02;56.63;95437.50;5067625;28;20446;-76
2022/05/02 01:45:05;;;;;;;4.18;2.95;;;;;;;12.04;56.60;95449.72;5067346;28;20538;-76
2022/05/02 01:47:30;;;;;;;5.47;4.60;;;;;;;11.98;56.61;95445.94;5049549;28;20029;-79
2022/05/02 01:49:58;;;;;;;5.55;3.50;;;;;;;11.99;56.65;95439.53;5032868;28;20040;-78
2022/05/02 01:52:23;;;;;;;4.82;3.60;;;;;;;12.05;56.56;95439.81;5049616;28;20040;-77
2022/05/02 01:54:48;;;;;;;6.50;3.60;;;;;;;11.97;56.79;95421.94;5049399;28;20032;-74
2022/05/02 01:57:14;;;;;;;6.05;3.97;;;;;;;11.93;56.75;95428.72;5049480;28;20025;-76
2022/05/02 01:59:39;;;;;;;7.22;3.42;;;;;;;11.98;57.03;95429.81;5049463;28;20020;-76
2022/05/02 02:02:05;;;;;;;6.20;4.13;;;;;;;11.96;56.94;95431.84;5049386;28;20453;-76
2022/05/02 02:07:14;;;;;;;6.32;4.88;;;;;;;11.87;57.56;95431.13;5051784;28;20595;-75
2022/05/02 02:09:39;;;;;;;5.47;4.63;;;;;;;11.80;57.61;95432.03;5067342;28;20025;-77
2022/05/02 02:12:05;;;;;;;8.43;4.68;;;;;;;11.82;57.84;95427.28;5048866;28;20028;-76
2022/05/02 02:14:31;;;;;;;6.25;5.05;;;;;;;11.75;57.83;95430.72;5032827;28;20028;-75
2022/05/02 02:16:56;;;;;;;8.48;5.00;;;;;;;11.79;57.57;95420.44;5048981;28;20090;-75
2022/05/02 02:19:22;;;;;;;8.65;4.80;;;;;;;11.77;57.86;95417.09;5049359;28;20431;-77
2022/05/02 02:21:47;;;;;;;5.50;4.82;;;;;;;11.79;57.92;95419.59;5049370;28;20107;-77
2022/05/02 02:24:13;;;;;;;6.55;4.93;;;;;;;11.81;57.93;95420.25;5066782;28;20036;-77
2022/05/02 02:26:39;;;;;;;6.65;4.93;;;;;;;11.76;58.04;95415.44;5048929;28;20078;-77
2022/05/02 02:29:04;;;;;;;7.03;4.40;;;;;;;11.72;58.12;95404.22;5032729;28;20036;-77
2022/05/02 02:31:30;;;;;;;4.95;4.22;;;;;;;11.77;58.42;95417.09;5048888;28;20017;-76
2022/05/02 02:33:55;;;;;;;5.43;4.22;;;;;;;11.82;58.15;95408.50;5015194;28;20032;-76
2022/05/02 02:36:21;;;;;;;5.28;4.45;;;;;;;11.80;58.21;95405.97;5048443;28;20552;-76
2022/05/02 02:38:46;;;;;;;7.03;4.03;;;;;;;11.79;58.29;95409.69;5066722;28;20025;-79
2022/05/02 02:41:11;;;;;;;8.32;4.35;;;;;;;11.68;58.62;95404.78;5048597;28;20044;-77
2022/05/02 02:43:37;;;;;;;4.93;4.00;;;;;;;11.68;58.55;95397.56;5031992;28;20463;-75
2022/05/02 02:46:02;;;;;;;7.32;3.88;;;;;;;11.66;58.93;95396.91;5066356;28;20033;-76
2022/05/02 02:48:28;;;;;;;6.28;4.13;;;;;;;11.54;59.32;95387.66;5066654;28;20025;-75
2022/05/02 02:50:53;;;;;;;7.80;4.43;;;;;;;11.61;58.88;95391.25;5015032;28;20493;-75
2022/05/02 02:53:19;;;;;;;6.03;4.18;;;;;;;11.56;59.05;95388.31;5066259;28;20036;-76
2022/05/02 02:55:44;;;;;;;8.40;4.28;;;;;;;11.46;59.51;95388.56;5066300;28;20021;-77
2022/05/02 02:58:09;;;;;;;5.32;3.72;;;;;;;11.48;59.18;95390.03;5032060;28;20047;-77
2022/05/02 03:00:35;;;;;;;6.65;4.85;;;;;;;11.44;59.63;95387.91;5048121;28;20058;-76
2022/05/02 03:03:00;;;;;;;6.43;4.13;;;;;;;11.40;59.48;95384.75;5048421;28;20027;-77
2022/05/02 03:08:10;;;;;;;7.07;4.03;;;;;;;11.29;59.82;95393.25;5036685;28;20102;-76
2022/05/02 03:10:36;;;;;;;7.82;4.03;;;;;;;11.32;59.75;95387.50;5048403;28;20028;-77
2022/05/02 03:13:01;;;;;;;5.50;4.22;;;;;;;11.32;59.74;95393.72;5048007;28;20431;-76
2022/05/02 03:15:27;;;;;;;10.38;4.68;;;;;;;11.26;60.04;95389.09;5048127;28;20021;-77
2022/05/02 03:17:52;;;;;;;7.45;4.35;;;;;;;11.30;60.28;95389.56;5065966;28;20473;-77
2022/05/02 03:20:18;;;;;;;7.45;4.38;;;;;;;11.26;60.36;95394.47;5031578;28;20476;-77
2022/05/02 03:22:43;;;;;;;8.10;4.15;;;;;;;11.19;60.62;95388.97;5014612;28;20051;-78
2022/05/02 03:25:09;;;;;;;6.82;3.80;;;;;;;11.12;60.87;95380.00;5047925;28;20021;-75
2022/05/02 03:27:34;;;;;;;6.78;4.53;;;;;;;11.12;60.84;95382.69;5047587;28;20029;-82
2022/05/02 03:30:00;;;;;;;5.90;4.10;;;;;;;11.05;61.26;95379.88;5047690;28;20107;-77
2022/05/02 03:32:25;;;;;;;8.65;4.75;;;;;;;10.99;61.37;95389.47;5065539;28;20061;-78
2022/05/02 03:34:50;;;;;;;7.18;4.60;;;;;;;10.99;61.42;95388.66;5065633;28;20028;-77
2022/05/02 03:37:16;;;;;;;8.32;4.57;;;;;;;11.05;60.95;95387.09;5065896;28;20047;-79
2022/05/02 03:39:42;;;;;;;8.48;4.40;;;;;;;11.07;61.05;95390.44;5065294;28;20395;-77
2022/05/02 03:42:07;;;;;;;7.15;4.40;;;;;;;11.00;61.00;95387.63;5031138;28;20097;-78
2022/05/02 03:44:33;;;;;;;5.97;4.28;;;;;;;10.89;61.48;95394.28;5047415;28;20113;-76
2022/05/02 03:46:58;;;;;;;7.97;4.60;;;;;;;10.94;60.88;95397.25;5029461;28;20032;-76
2022/05/02 03:49:24;;;;;;;5.93;4.00;;;;;;;10.81;61.65;95389.81;5064652;28;20090;-76
2022/05/02 03:51:49;;;;;;;5.53;4.03;;;;;;;10.84;61.84;95391.28;5064647;28;20041;-80
2022/05/02 03:54:14;;;;;;;9.20;4.57;;;;;;;10.81;61.76;95397.03;5047431;28;20094;-76
2022/05/02 03:56:40;;;;;;;7.05;4.72;;;;;;;10.85;61.55;95399.16;5047181;28;20017;-76
2022/05/02 03:59:05;;;;;;;5.55;4.20;;;;;;;10.85;61.76;95401.84;5065337;28;20040;-75
2022/05/02 04:01:36;;;;;;;6.82;4.25;;;;;;;10.91;61.48;95403.00;5064845;28;20036;-77
2022/05/02 04:04:01;;;;;;;6.15;4.60;;;;;;;10.96;61.11;95399.75;5046971;28;20429;-76
2022/05/02 04:06:26;;;;;;;5.05;4.10;;;;;;;10.99;60.91;95394.03;5064925;28;20039;-76
2022/05/02 04:08:52;;;;;;;7.13;4.57;;;;;;;11.02;60.67;95393.66;5047278;28;20028;-77
2022/05/02 04:11:17;;;;;;;8.20;4.72;;;;;;;11.05;60.78;95398.69;5047171;28;20037;-77
2022/05/02 04:13:43;;;;;;;7.65;4.60;;;;;;;11.10;60.58;95400.81;5046718;28;20482;-77
2022/05/02 04:16:08;;;;;;;7.35;5.13;;;;;;;10.97;60.87;95396.06;5065415;28;20016;-76
2022/05/02 04:18:34;;;;;;;8.23;4.75;;;;;;;11.08;60.64;95398.31;5064956;28;20481;-74
2022/05/02 04:20:59;;;;;;;7.72;4.85;;;;;;;11.15;60.34;95395.75;5064772;28;20074;-77
2022/05/02 04:23:24;;;;;;;9.23;5.47;;;;;;;11.27;60.09;95398.00;5065105;28;20105;-76
2022/05/02 04:25:50;;;;;;;6.38;4.82;;;;;;;11.30;59.84;95406.50;5064394;28;20035;-77
2022/05/02 04:28:15;;;;;;;7.07;4.85;;;;;;;11.40;59.65;95405.44;5065035;28;20479;-75
2022/05/02 04:30:41;;;;;;;7.60;5.00;;;;;;;11.48;59.55;95408.84;5046248;28;20446;-76
2022/05/02 04:33:06;;;;;;;7.82;4.95;;;;;;;11.61;58.83;95408.22;5046945;28;20495;-76
2022/05/02 04:35:32;;;;;;;7.78;5.43;;;;;;;11.77;58.09;95410.91;5046136;28;20572;-77
2022/05/02 04:37:58;;;;;;;6.95;5.35;;;;;;;11.94;57.80;95411.56;5046956;28;20037;-75
2022/05/02 04:40:24;;;;;;;6.85;5.20;;;;;;;12.01;57.43;95417.03;5046632;28;20408;-77
2022/05/02 04:42:49;;;;;;;7.75;5.07;;;;;;;12.14;57.13;95413.72;5013263;28;20120;-79
2022/05/02 04:45:15;;;;;;;7.55;4.80;;;;;;;12.32;56.66;95418.66;5046362;28;20036;-78
2022/05/02 04:47:40;;;;;;;7.95;5.38;;;;;;;12.15;57.49;95413.53;5030058;28;20025;-77
2022/05/02 04:50:06;;;;;;;9.02;5.20;;;;;;;12.35;56.44;95407.53;5046328;28;20025;-76
2022/05/02 04:52:31;;;;;;;7.80;5.03;;;;;;;12.47;56.21;95406.03;5046385;28;20075;-77
2022/05/02 04:54:57;;;;;;;12.40;5.25;;;;;;;12.64;55.51;95400.41;5046640;28;20437;-79
2022/05/02 04:57:22;;;;;;;6.72;4.43;;;;;;;12.84;54.93;95402.47;5046960;28;20258;-77
2022/05/02 04:59:47;;;;;;;7.18;4.57;;;;;;;13.00;54.38;95404.06;5050531;28;20021;-77
2022/05/02 05:02:13;;;;;;;8.52;4.38;;;;;;;13.09;54.37;95396.72;5050420;28;20036;-76
2022/05/02 05:04:38;;;;;;;5.07;3.90;;;;;;;13.17;53.82;95390.34;5050287;28;20041;-77
2022/05/02 05:07:04;;;;;;;4.97;3.80;;;;;;;13.11;53.56;95400.03;5049394;28;20043;-77
2022/05/02 05:09:30;;;;;;;6.93;4.05;;;;;;;13.36;53.15;95394.22;5068232;28;20035;-76
2022/05/02 05:11:58;;;;;;;6.57;3.83;;;;;;;13.45;52.34;95393.06;5050452;28;20028;-78
2022/05/02 05:17:48;;;;;;;8.73;4.20;;;;;;;13.62;52.52;95390.09;5053142;28;20600;-78
2022/05/02 05:20:32;;;;;;;5.95;4.43;;;;;;;13.72;51.89;95384.34;5068542;28;20035;-77
2022/05/02 05:23:16;;;;;;;4.68;3.50;;;;;;;13.91;51.06;95388.16;5034477;28;20074;-78
2022/05/02 05:25:55;;;;;;;8.23;4.55;;;;;;;13.92;50.74;95375.53;5033614;28;20036;-77
2022/05/02 05:29:11;;;;;;;5.82;4.18;;;;;;;14.06;50.13;95384.50;5051945;28;20027;-76
2022/05/02 05:31:40;;;;;;;5.25;3.63;;;;;;;14.04;50.77;95384.72;5023145;28;20059;-79
2022/05/02 05:34:30;;;;;;;5.78;3.80;;;;;;;14.32;49.69;95389.19;5067849;28;20028;-79
2022/05/02 05:36:58;;;;;;;8.65;3.72;;;;;;;14.43;49.55;95389.63;5049752;28;20573;-75
2022/05/02 05:39:29;;;;;;;8.80;3.80;;;;;;;14.40;49.29;95385.50;5049657;28;20029;-76
2022/05/02 05:42:17;;;;;;;5.45;3.58;;;;;;;14.39;50.03;95394.63;5049722;28;20217;-78
2022/05/02 05:44:59;;;;;;;4.40;3.20;;;;;;;14.39;49.55;95389.22;5049854;28;20025;-77
2022/05/02 05:47:28;;;;;;;6.57;3.85;;;;;;;14.61;49.09;95380.97;5032975;28;20032;-79
2022/05/02 05:49:59;;;;;;;7.65;3.88;;;;;;;14.64;48.61;95385.97;5067474;28;20029;-77
2022/05/02 05:52:46;;;;;;;5.50;3.35;;;;;;;14.58;48.21;95376.84;5067193;28;20123;-77
2022/05/02 05:55:16;;;;;;;5.40;4.00;;;;;;;14.71;48.49;95373.34;5050875;28;20028;-77
2022/05/02 05:58:19;;;;;;;5.38;3.60;;;;;;;14.83;47.54;95378.16;5032875;28;20875;-78
2022/05/02 06:00:44;;;;;;;5.35;3.80;;;;;;;14.84;47.80;95374.41;5049494;28;20028;-76
2022/05/02 06:03:17;;;;;;;6.72;3.67;;;;;;;15.07;47.67;95370.50;5049014;28;20035;-76
2022/05/02 06:05:43;;;;;;;5.07;3.55;;;;;;;15.06;47.66;95366.13;5049575;28;20112;-75
2022/05/02 06:08:16;;;;;;;5.95;3.75;;;;;;;15.20;47.34;95359.69;5049258;28;20064;-77
2022/05/02 06:10:42;;;;;;;;;;;;;;;15.36;46.79;95360.31;5048852;28;20532;-77
2022/05/02 06:13:08;;;;;;;7.20;3.50;;;;;;;15.28;46.71;95358.63;5049457;28;20002;-78
2022/05/02 06:18:27;;;;;;;7.50;3.58;;;;;;;15.49;46.16;95358.63;5037683;28;20043;-78
2022/05/02 06:20:53;;;;;;;7.13;3.67;;;;;;;15.55;46.16;95364.03;5018677;28;20025;-77
2022/05/02 06:23:18;;;;;;;6.18;3.92;;;;;;;15.70;45.60;95357.56;5031850;28;20029;-76
2022/05/02 06:25:48;;;;;;;6.88;4.47;;;;;;;15.64;46.03;95359.22;5032694;28;20025;-78
2022/05/02 06:28:13;;;;;;;7.50;4.25;;;;;;;15.64;45.89;95366.50;5032172;28;20123;-78
2022/05/02 06:30:39;;;;;;;9.45;4.05;;;;;;;15.70;46.38;95371.09;5031951;28;20464;-77
2022/05/02 06:33:08;;;;;;;7.30;4.25;;;;;;;15.65;45.46;95358.16;5032143;28;20054;-76
2022/05/02 06:36:19;;;;;;;4.82;3.80;;;;;;;15.72;46.43;95354.66;5048928;28;20479;-79
2022/05/02 06:38:56;;;;;;;6.25;4.15;;;;;;;15.94;45.56;95344.41;5046069;28;20044;-78
2022/05/02 06:41:31;;;;;;;5.95;4.55;;;;;;;15.80;45.07;95349.00;5066347;28;20079;-76
2022/05/02 06:44:15;;;;;;;7.65;4.90;;;;;;;15.69;46.03;95336.97;5066350;28;20090;-76
2022/05/02 06:47:12;;;;;;;7.32;4.55;;;;;;;15.79;46.88;95344.63;5048023;28;20037;-79
2022/05/02 06:49:40;;;;;;;6.45;4.28;;;;;;;15.88;45.98;95346.06;5066165;28;20024;-76
2022/05/02 06:52:08;;;;;;;6.88;4.60;;;;;;;15.64;46.82;95345.72;5015890;28;20563;-77
2022/05/02 06:54:56;;;;;;;6.43;4.38;;;;;;;15.74;45.93;95330.91;5024707;28;20033;-75
2022/05/02 06:57:31;;;;;;;5.80;4.45;;;;;;;15.97;45.21;95326.91;5024773;28;20069;-75
2022/05/02 07:00:07;;;;;;;6.28;4.70;;;;;;;16.06;45.36;95326.47;5025417;28;20017;-76
2022/05/02 07:02:51;;;;;;;6.28;4.68;;;;;;;15.96;45.26;95336.06;5024796;28;20432;-76
2022/05/02 07:05:26;;;;;;;7.25;5.13;;;;;;;15.89;45.63;95326.09;5024845;28;20037;-75
2022/05/02 07:08:02;;;;;;;6.15;4.15;;;;;;;15.89;45.79;95327.97;5008730;28;20489;-76
2022/05/02 07:10:38;;;;;;;11.98;4.53;;;;;;;15.89;45.99;95323.41;5024588;28;20557;-75
2022/05/02 07:13:18;;;;;;;9.85;4.43;;;;;;;16.01;45.59;95312.75;5026472;28;20030;-75
2022/05/02 07:15:50;;;;;;;10.13;4.47;;;;;;;16.08;45.23;95314.59;5025977;28;20033;-77
2022/05/02 07:18:29;;;;;;;8.27;4.75;;;;;;;15.96;45.54;95312.53;5026292;28;20029;-76
2022/05/02 07:21:13;;;;;;;8.68;3.80;;;;;;;16.10;45.12;95318.78;5024869;28;20029;-76
2022/05/02 07:23:51;;;;;;;6.15;4.03;;;;;;;15.78;45.26;95316.75;5010106;28;20589;-77
2022/05/02 07:26:18;;;;;;;5.93;3.90;;;;;;;15.70;46.04;95315.13;5025172;28;20060;-76
2022/05/02 07:28:44;;;;;;;5.30;3.58;;;;;;;15.81;45.65;95308.22;5008337;28;20041;-76
2022/05/02 07:31:10;;;;;;;6.97;3.88;;;;;;;15.79;46.10;95313.03;5025992;28;20025;-78
2022/05/02 07:33:37;;;;;;;5.25;3.40;;;;;;;15.93;45.49;95305.69;5025588;28;20034;-77
2022/05/02 07:36:03;;;;;;;5.00;3.60;;;;;;;15.93;45.01;95310.25;5024293;28;20026;-75
2022/05/02 07:38:31;;;;;;;7.70;3.60;;;;;;;15.91;44.61;95302.38;5007919;28;20030;-76
2022/05/02 07:43:42;;;;;;;6.18;3.58;;;;;;;16.23;44.45;95307.06;5011266;28;20059;-78
2022/05/02 07:46:08;;;;;;;4.82;3.63;;;;;;;16.26;44.27;95311.19;5007921;28;20021;-78
2022/05/02 07:48:33;;;;;;;5.82;3.28;;;;;;;16.17;44.08;95306.03;5007669;28;20033;-76
2022/05/02 07:50:59;;;;;;;4.75;3.40;;;;;;;16.12;43.97;95299.63;5007635;28;20060;-76
2022/05/02 07:53:25;;;;;;;6.95;4.30;;;;;;;16.09;44.50;95314.38;4991451;28;20026;-80
2022/05/02 07:55:50;;;;;;;6.32;3.60;;;;;;;16.22;43.53;95307.28;5007561;28;20036;-76
2022/05/02 07:58:16;;;;;;;11.20;4.57;;;;;;;16.35;42.69;95323.44;5007618;28;20144;-76
2022/05/02 08:00:41;;;;;;;10.23;4.53;;;;;;;16.23;43.18;95314.34;5007472;28;20032;-76
2022/05/02 08:03:07;;;;;;;10.07;4.70;;;;;;;16.35;42.60;95323.44;5007660;28;20044;-75
2022/05/02 08:05:33;;;;;;;7.28;5.15;;;;;;;16.24;43.18;95310.56;5024162;28;20030;-76
2022/05/02 08:08:07;;;;;;;5.40;4.70;;;;;;;16.11;42.56;95322.28;5023667;28;20033;-77
2022/05/02 08:10:44;;;;;;;7.88;5.10;;;;;;;15.82;43.60;95336.09;5008349;28;20068;-78
2022/05/02 08:13:28;;;;;;;9.15;4.80;;;;;;;15.54;43.65;95329.13;5023823;28;20338;-78
2022/05/02 08:16:05;;;;;;;7.00;5.32;;;;;;;15.00;44.24;95323.75;5025112;28;20404;-76
2022/05/02 08:19:02;;;;;;;7.65;5.43;;;;;;;15.13;44.18;95322.91;5023903;28;20025;-79
2022/05/02 08:21:30;;;;;;;9.82;6.50;;;;;;;15.32;44.77;95323.94;5002882;28;20069;-75
2022/05/02 08:27:27;;;;;;;11.55;6.60;;;;;;;15.56;43.44;95317.03;5025687;28;20041;-76
2022/05/02 08:30:06;;;;;;;9.95;5.80;;;;;;;15.56;43.33;95327.00;5025200;28;20484;-76
2022/05/02 08:32:57;;;;;;;7.63;5.90;;;;;;;15.56;42.47;95325.16;5006849;28;20064;-77
2022/05/02 08:35:22;;;;;;;15.40;6.63;;;;;;;15.50;42.83;95327.84;5007559;28;20056;-77
2022/05/02 08:38:08;;;;;;;10.45;7.30;;;;;;;15.37;44.00;95317.91;5024858;28;20067;-77
2022/05/02 08:41:15;;;;;;;9.88;6.95;;;;;;;15.30;43.69;95312.50;5009609;28;20029;-79
2022/05/02 08:44:02;;;;;;;9.55;7.00;;;;;;;15.40;43.52;95307.50;4991727;28;20558;-76
2022/05/02 08:47:03;;;;;;;7.13;6.15;;;;;;;15.80;42.44;95303.03;5025171;28;20033;-77
2022/05/02 08:49:53;;;;;;;6.88;5.78;;;;;;;15.79;42.06;95304.06;4983092;28;20037;-76
2022/05/02 08:52:18;;;;;;;7.90;6.40;;;;;;;15.75;42.00;95292.84;5020573;28;20476;-79
2022/05/02 08:54:48;;;;;;;10.02;5.72;;;;;;;15.88;40.79;95294.69;5024768;28;20025;-77
2022/05/02 08:57:39;;;;;;;9.65;5.78;;;;;;;15.92;40.22;95293.22;5025242;28;20029;-77
2022/05/02 09:00:09;;;;;;;7.57;5.40;;;;;;;15.99;40.04;95286.97;5008813;28;20492;-78
2022/05/02 09:03:02;;;;;;;8.75;4.97;;;;;;;16.32;38.98;95280.56;5023259;28;20428;-80
2022/05/02 09:05:59;;;;;;;8.30;5.05;;;;;;;16.49;39.34;95278.16;5024866;28;20037;-79
2022/05/02 09:08:34;;;;;;;16.88;6.07;;;;;;;16.67;38.42;95274.72;5023634;28;20204;-77
2022/05/02 09:11:31;;;;;;;9.48;5.93;;;;;;;16.48;38.65;95283.78;5023088;28;20022;-79
2022/05/02 09:13:57;;;;;;;9.27;5.85;;;;;;;16.52;39.24;95285.03;5023289;28;20645;-77
2022/05/02 09:16:41;;;;;;;12.07;5.78;;;;;;;16.43;39.57;95281.75;5024498;28;20029;-80
2022/05/02 09:19:17;;;;;;;6.22;4.68;;;;;;;16.35;37.82;95263.06;5024734;28;20653;-78
2022/05/02 09:22:18;;;;;;;7.43;5.15;;;;;;;16.80;37.57;95275.66;5006881;28;20026;-77
2022/05/02 09:24:52;;;;;;;5.30;4.60;;;;;;;16.66;35.86;95261.41;5023025;28;20081;-78
2022/05/02 09:27:36;;;;;;;5.82;4.25;;;;;;;16.60;36.73;95265.81;5022885;28;20096;-77
2022/05/02 09:30:21;;;;;;;11.15;4.72;;;;;;;16.57;37.15;95244.59;5024278;28;20029;-77
2022/05/02 09:32:48;;;;;;;6.10;5.00;;;;;;;16.38;37.34;95252.63;5024708;28;20535;-76
2022/05/02 09:35:28;;;;;;;5.97;4.60;;;;;;;16.36;37.96;95268.28;5022886;28;20049;-77
2022/05/02 09:38:06;;;;;;;7.28;4.38;;;;;;;16.24;37.16;95283.53;5008527;28;20485;-75
2022/05/02 09:40:35;;;;;;;4.93;4.43;;;;;;;16.06;37.46;95263.44;5025113;28;20029;-75
2022/05/02 09:43:18;;;;;;;5.57;4.72;;;;;;;16.00;37.56;95257.00;5006802;28;20105;-76
2022/05/02 09:51:40;;;;;;;5.07;4.50;;;;;;;16.01;37.76;95233.50;5028507;28;20447;-79
2022/05/02 09:54:14;;;;;;;7.40;4.90;;;;;;;15.97;37.57;95232.22;5027868;28;20044;-75
2022/05/02 09:56:46;;;;;;;9.52;5.07;;;;;;;15.97;37.66;95234.94;5026453;28;20073;-78
2022/05/02 09:59:18;;;;;;;7.50;4.75;;;;;;;15.98;37.80;95239.31;5027488;28;20018;-77
2022/05/02 10:01:48;;;;;;;4.97;4.38;;;;;;;15.84;38.15;95238.53;5026462;28;20059;-79
2022/05/02 10:04:29;;;;;;;5.15;4.65;;;;;;;15.79;37.76;95233.78;5026204;28;20030;-78
2022/05/02 10:06:55;;;;;;;6.28;4.47;;;;;;;15.73;37.73;95235.47;5027536;28;20041;-80
2022/05/02 10:09:32;;;;;;;7.15;4.75;;;;;;;15.82;38.14;95236.06;5009685;28;20017;-79
2022/05/02 10:12:27;;;;;;;5.57;4.75;;;;;;;15.67;38.91;95226.34;5027339;28;20515;-78
2022/05/02 10:15:00;;;;;;;5.45;4.68;;;;;;;15.75;38.62;95227.97;5026606;28;20022;-77
2022/05/02 10:17:34;;;;;;;5.70;4.07;;;;;;;15.79;38.45;95237.31;5027198;28;20099;-77
2022/05/02 10:20:29;;;;;;;4.93;3.97;;;;;;;15.86;38.90;95239.16;5026225;28;20083;-76
2022/05/02 10:23:11;;;;;;;6.25;4.38;;;;;;;15.93;38.49;95229.13;5024105;28;20076;-76
2022/05/02 10:25:58;;;;;;;4.82;3.70;;;;;;;15.90;37.14;95219.59;5026398;28;20065;-77
2022/05/02 10:28:36;;;;;;;7.78;3.35;;;;;;;16.04;36.80;95225.78;5011519;28;20447;-76
2022/05/02 10:31:19;;;;;;;6.05;3.78;;;;;;;16.10;36.93;95224.09;5025855;28;20051;-77
2022/05/02 10:33:45;;;;;;;;;;;;;;;16.15;36.73;95216.13;5026220;28;20022;-75
2022/05/02 10:36:11;;;;;;;7.50;3.75;;;;;;;16.27;36.61;95208.16;5025913;28;19999;-76
2022/05/02 10:38:45;;;;;;;5.60;3.78;;;;;;;16.44;35.93;95208.44;5009179;28;20224;-75
2022/05/02 10:41:20;;;;;;;4.55;3.85;;;;;;;16.48;35.90;95208.00;4993462;28;20484;-78
2022/05/02 10:43:49;;;;;;;4.20;3.80;;;;;;;16.56;36.06;95216.69;5025676;28;20025;-79
2022/05/02 10:46:15;;;;;;;8.50;3.80;;;;;;;16.44;35.61;95216.56;4992879;28;20034;-77
2022/05/02 10:48:44;;;;;;;6.80;3.67;;;;;;;16.44;35.18;95205.75;5008632;28;20021;-76
2022/05/02 10:51:26;;;;;;;5.68;3.42;;;;;;;16.46;35.42;95200.09;5015311;28;20110;-75
2022/05/02 10:54:36;;;;;;;5.85;3.40;;;;;;;16.57;35.72;95206.72;5033224;28;20241;-75
2022/05/02 10:57:11;;;;;;;6.15;3.83;;;;;;;16.72;36.35;95202.84;4984093;28;20030;-74
2022/05/02 10:59:38;;;;;;;6.57;3.90;;;;;;;16.85;36.57;95200.00;5025667;28;20063;-75
2022/05/02 11:02:26;;;;;;;3.65;3.35;;;;;;;17.05;36.12;95196.28;5048390;28;20115;-76
2022/05/02 11:05:14;;;;;;;8.23;3.72;;;;;;;17.14;36.76;95200.38;5048409;28;20055;-78
2022/05/02 11:08:02;;;;;;;4.95;3.67;;;;;;;17.18;36.52;95196.16;5025381;28;20044;-76
2022/05/02 11:10:29;;;;;;;5.45;3.25;;;;;;;17.22;35.90;95209.28;5049120;28;20510;-78
2022/05/02 11:13:07;;;;;;;5.15;3.13;;;;;;;17.12;35.27;95199.75;5031314;28;20036;-78
2022/05/02 11:15:57;;;;;;;8.13;3.92;;;;;;;17.21;35.86;95194.06;5065953;28;20024;-77
2022/05/02 11:21:52;;;;;;;12.82;4.22;;;;;;;17.41;35.35;95175.69;5056604;28;20039;-77
2022/05/02 11:24:20;;;;;;;6.80;3.40;;;;;;;17.46;35.50;95179.63;5066328;28;20675;-76
2022/05/02 11:26:57;;;;;;;4.90;3.55;;;;;;;17.58;35.56;95183.22;5065446;28;20097;-76
2022/05/02 11:29:39;;;;;;;4.15;3.10;;;;;;;17.39;35.35;95188.66;5032650;28;20024;-77
2022/05/02 11:32:09;;;;;;;5.90;3.90;;;;;;;17.44;35.55;95195.28;5031052;28;20490;-75
2022/05/02 11:34:59;;;;;;;4.10;3.08;;;;;;;17.40;35.79;95197.59;5015003;28;20297;-77
2022/05/02 11:37:37;;;;;;;4.72;3.40;;;;;;;17.16;36.92;95192.84;5031646;28;20126;-78
2022/05/02 11:40:10;;;;;;;4.70;3.63;;;;;;;17.31;37.03;95197.09;5048227;28;20123;-77
2022/05/02 11:42:41;;;;;;;5.25;3.40;;;;;;;17.37;36.30;95196.19;5030813;28;20426;-78
2022/05/02 11:45:11;;;;;;;3.88;3.10;;;;;;;17.35;37.00;95192.00;5032075;28;20218;-80
2022/05/02 11:47:39;;;;;;;4.40;3.40;;;;;;;17.29;36.57;95185.63;5031130;28;20553;-76
2022/05/02 11:50:10;;;;;;;3.95;3.00;;;;;;;17.26;36.76;95192.34;5065798;28;20033;-77
2022/05/02 11:52:38;;;;;;;5.47;3.30;;;;;;;17.16;36.99;95192.84;5065403;28;20130;-77
2022/05/02 11:55:05;;;;;;;10.95;3.67;;;;;;;17.13;37.11;95187.88;5065145;28;20024;-76
2022/05/02 11:57:39;;;;;;;9.85;3.47;;;;;;;17.05;37.21;95191.69;5065198;28;20031;-78
2022/05/02 12:00:15;;;;;;;4.45;3.45;;;;;;;16.90;37.29;95178.50;5047091;28;20020;-77
2022/05/02 12:02:43;;;;;;;3.95;3.40;;;;;;;16.88;37.46;95172.47;5031038;28;20123;-78
2022/05/02 12:05:18;;;;;;;4.60;3.20;;;;;;;16.75;37.17;95172.59;5047042;28;20035;-79
2022/05/02 12:07:57;;;;;;;7.57;3.40;;;;;;;16.64;36.59;95174.97;5046364;28;20034;-78
2022/05/02 12:10:48;;;;;;;5.38;3.97;;;;;;;16.63;37.36;95178.75;5032273;28;20031;-75
2022/05/02 12:13:18;;;;;;;7.38;3.70;;;;;;;16.60;37.38;95184.59;5048654;28;20020;-76
2022/05/02 12:15:57;;;;;;;5.15;3.63;;;;;;;16.48;37.00;95173.66;5047195;28;20510;-76
2022/05/02 12:18:22;;;;;;;4.75;3.35;;;;;;;16.50;36.88;95168.03;5046963;28;20021;-77
2022/05/02 12:20:54;;;;;;;3.70;2.90;;;;;;;16.36;36.32;95161.88;5047033;28;20024;-76
2022/05/02 12:23:20;;;;;;;3.90;3.17;;;;;;;16.27;36.60;95170.28;5030316;28;20032;-78